createdAt,value
2017-11-04T00:02:07.988Z,54.20
2017-11-04T00:04:36.536Z,51.20
2017-11-04T00:07:04.184Z,43.20
2017-11-04T00:09:31.812Z,53.33
2017-11-04T00:11:59.462Z,56.00
2017-11-04T00:14:27.888Z,109.53
2017-11-04T00:16:55.524Z,58.10
2017-11-04T00:19:23.146Z,54.10
2017-11-04T00:21:51.562Z,52.17
2017-11-04T00:24:19.192Z,61.27
2017-11-04T00:26:47.616Z,52.83
2017-11-04T00:29:15.236Z,44.00
2017-11-04T00:31:42.844Z,53.67
2017-11-04T00:34:10.483Z,51.83
2017-11-04T00:36:38.109Z,75.37
2017-11-04T00:39:06.519Z,74.20
2017-11-04T00:41:34.143Z,60.47
2017-11-04T00:44:02.580Z,51.77
2017-11-04T00:46:30.208Z,48.87
2017-11-04T00:48:57.907Z,42.93
2017-11-04T00:51:25.520Z,64.63
2017-11-04T00:53:53.132Z,50.60
2017-11-04T00:56:20.885Z,63.27
2017-11-04T00:58:48.641Z,113.60
2017-11-04T01:01:16.337Z,288.07
2017-11-04T01:03:44.735Z,124.20
2017-11-04T01:06:12.396Z,251.77
2017-11-04T01:08:40.020Z,269.70
2017-11-04T01:11:07.716Z,66.30
2017-11-04T01:13:35.335Z,91.17
2017-11-04T01:16:02.967Z,53.57
2017-11-04T01:18:30.623Z,175.60
2017-11-04T01:20:58.256Z,91.43
2017-11-04T01:23:25.903Z,75.67
2017-11-04T01:25:54.287Z,131.87
2017-11-04T01:28:21.949Z,125.53
2017-11-04T01:30:49.586Z,194.80
2017-11-04T01:33:18.040Z,86.50
2017-11-04T01:35:45.690Z,50.07
2017-11-04T01:38:13.313Z,70.37
2017-11-04T01:40:40.969Z,137.30
2017-11-04T01:43:08.625Z,60.43
2017-11-04T01:45:36.339Z,78.00
2017-11-04T01:48:04.000Z,143.87
2017-11-04T01:50:31.725Z,158.97
2017-11-04T01:52:59.347Z,28.40
2017-11-04T01:55:27.791Z,60.17
2017-11-04T01:57:55.424Z,305.53
2017-11-04T02:00:23.042Z,331.47
2017-11-04T02:02:50.695Z,85.87
2017-11-04T02:05:18.370Z,66.27
2017-11-04T02:07:46.820Z,29.33
2017-11-04T02:10:14.462Z,146.10
2017-11-04T02:12:42.137Z,124.17
2017-11-04T02:15:09.821Z,34.13
2017-11-04T02:17:37.471Z,32.60
2017-11-04T02:20:05.157Z,152.43
2017-11-04T02:22:33.619Z,98.37
2017-11-04T02:25:01.320Z,31.97
2017-11-04T02:27:28.950Z,33.60
2017-11-04T02:29:57.400Z,47.20
2017-11-04T02:32:25.005Z,43.53
2017-11-04T02:34:52.720Z,47.83
2017-11-04T02:37:20.337Z,81.73
2017-11-04T02:39:47.968Z,31.30
2017-11-04T02:42:16.388Z,36.13
2017-11-04T02:44:44.059Z,34.00
2017-11-04T02:47:11.725Z,71.80
2017-11-04T02:49:39.348Z,50.07
2017-11-04T02:52:07.012Z,23.13
2017-11-04T02:54:34.637Z,67.37
2017-11-04T02:57:02.325Z,27.50
2017-11-04T02:59:29.971Z,29.43
2017-11-04T03:01:58.351Z,26.27
2017-11-04T03:04:26.770Z,36.00
2017-11-04T03:06:54.413Z,26.50
2017-11-04T03:09:22.076Z,35.87
2017-11-04T03:11:49.687Z,36.40
2017-11-04T03:14:17.350Z,26.30
2017-11-04T03:16:45.015Z,26.37
2017-11-04T03:19:13.560Z,30.23
2017-11-04T03:21:41.233Z,30.40
2017-11-04T03:24:08.920Z,25.00
2017-11-04T03:26:37.373Z,31.40
2017-11-04T03:29:05.007Z,29.40
2017-11-04T03:31:32.675Z,31.40
2017-11-04T03:34:00.303Z,32.73
2017-11-04T03:36:27.978Z,32.93
2017-11-04T03:38:55.663Z,29.60
2017-11-04T03:41:23.449Z,35.70
2017-11-04T03:43:51.104Z,31.73
2017-11-04T03:46:18.720Z,28.97
2017-11-04T03:48:46.376Z,31.10
2017-11-04T03:51:14.007Z,32.23
2017-11-04T03:53:42.447Z,29.17
2017-11-04T03:56:10.064Z,31.20
2017-11-04T03:58:37.745Z,29.00
2017-11-04T04:01:06.146Z,25.70
2017-11-04T04:03:33.795Z,28.13
2017-11-04T04:06:01.416Z,33.03
2017-11-04T04:08:29.086Z,25.13
2017-11-04T04:10:56.751Z,21.20
2017-11-04T04:13:24.368Z,23.93
2017-11-04T04:15:52.032Z,23.03
2017-11-04T04:18:19.674Z,21.53
2017-11-04T04:20:47.359Z,24.47
2017-11-04T04:23:15.745Z,20.17
2017-11-04T04:25:44.157Z,22.23
2017-11-04T04:28:11.784Z,23.23
2017-11-04T04:30:40.760Z,22.80
2017-11-04T04:33:09.160Z,27.07
2017-11-04T04:35:36.816Z,21.20
2017-11-04T04:38:04.501Z,21.13
2017-11-04T04:40:32.155Z,23.43
2017-11-04T04:42:59.852Z,23.40
2017-11-04T04:45:27.532Z,25.70
2017-11-04T04:47:55.247Z,22.10
2017-11-04T04:50:22.969Z,22.40
2017-11-04T04:52:51.512Z,24.13
2017-11-04T04:55:19.161Z,23.60
2017-11-04T04:57:46.783Z,19.37
2017-11-04T05:00:14.436Z,23.60
2017-11-04T05:02:42.823Z,27.00
2017-11-04T05:05:10.479Z,25.00
2017-11-04T05:07:38.104Z,23.23
2017-11-04T05:10:05.753Z,23.43
2017-11-04T05:12:34.156Z,24.73
2017-11-04T05:15:02.606Z,25.37
2017-11-04T05:17:30.224Z,23.83
2017-11-04T05:19:57.833Z,22.60
2017-11-04T05:22:25.488Z,20.87
2017-11-04T05:24:53.099Z,19.80
2017-11-04T05:27:20.787Z,23.67
2017-11-04T05:29:48.411Z,20.53
2017-11-04T05:32:16.064Z,24.50
2017-11-04T05:34:44.462Z,21.50
2017-11-04T05:37:12.227Z,24.60
2017-11-04T05:39:39.860Z,25.20
2017-11-04T05:42:08.246Z,22.33
2017-11-04T05:44:36.662Z,24.50
2017-11-04T05:47:04.277Z,22.87
2017-11-04T05:49:32.695Z,24.60
2017-11-04T05:52:00.305Z,22.13
2017-11-04T05:54:28.745Z,21.53
2017-11-04T05:56:56.364Z,20.37
2017-11-04T05:59:24.035Z,21.73
2017-11-04T06:01:51.801Z,21.60
2017-11-04T06:04:19.473Z,25.47
2017-11-04T06:06:47.545Z,21.70
2017-11-04T06:09:15.225Z,20.00
2017-11-04T06:11:42.908Z,22.40
2017-11-04T06:14:10.515Z,21.50
2017-11-04T06:16:38.125Z,21.90
2017-11-04T06:19:05.793Z,17.67
2017-11-04T06:21:34.223Z,21.23
2017-11-04T06:24:01.879Z,21.23
2017-11-04T06:26:29.555Z,21.37
2017-11-04T06:28:57.238Z,17.23
2017-11-04T06:31:24.878Z,21.30
2017-11-04T06:33:52.508Z,18.17
2017-11-04T06:36:20.160Z,18.53
2017-11-04T06:38:47.801Z,21.03
2017-11-04T06:41:16.230Z,19.90
2017-11-04T06:43:43.847Z,18.50
2017-11-04T06:46:12.316Z,16.67
2017-11-04T06:48:40.704Z,18.87
2017-11-04T06:51:09.083Z,16.50
2017-11-04T06:53:36.728Z,20.10
2017-11-04T06:56:05.111Z,18.23
2017-11-04T06:58:33.518Z,22.47
2017-11-04T07:01:01.144Z,20.30
2017-11-04T07:03:29.554Z,15.73
2017-11-04T07:05:57.191Z,16.40
2017-11-04T07:08:25.586Z,18.37
2017-11-04T07:10:53.374Z,17.60
2017-11-04T07:13:23.145Z,18.37
2017-11-04T07:15:55.307Z,17.60
2017-11-04T07:18:23.504Z,20.03
2017-11-04T07:20:51.285Z,16.20
2017-11-04T07:23:18.912Z,17.73
2017-11-04T07:25:46.551Z,20.40
2017-11-04T07:28:15.032Z,20.07
2017-11-04T07:30:43.417Z,21.37
2017-11-04T07:33:11.848Z,20.27
2017-11-04T07:35:39.500Z,17.87
2017-11-04T07:38:07.158Z,19.57
2017-11-04T07:40:34.821Z,16.67
2017-11-04T07:43:02.597Z,19.17
2017-11-04T07:45:30.235Z,18.80
2017-11-04T07:47:57.914Z,25.67
2017-11-04T07:50:25.656Z,19.83
2017-11-04T07:52:53.306Z,17.93
2017-11-04T07:55:20.998Z,19.37
2017-11-04T07:57:48.620Z,21.10
2017-11-04T08:00:16.294Z,16.40
2017-11-04T08:02:43.907Z,15.00
2017-11-04T08:05:12.342Z,15.30
2017-11-04T08:07:39.969Z,15.20
2017-11-04T08:10:07.604Z,16.47
2017-11-04T08:12:36.050Z,16.17
2017-11-04T08:15:03.679Z,13.00
2017-11-04T08:17:31.368Z,12.97
2017-11-04T08:19:58.998Z,12.70
2017-11-04T08:22:26.668Z,13.97
2017-11-04T08:24:54.288Z,13.53
2017-11-04T08:27:22.716Z,13.70
2017-11-04T08:29:50.399Z,15.73
2017-11-04T08:32:18.044Z,14.90
2017-11-04T08:34:45.699Z,16.50
2017-11-04T08:37:13.360Z,13.97
2017-11-04T08:39:40.991Z,10.77
2017-11-04T08:42:08.765Z,12.27
2017-11-04T08:44:36.448Z,13.57
2017-11-04T08:47:04.129Z,15.00
2017-11-04T08:49:31.824Z,12.80
2017-11-04T08:51:59.501Z,10.63
2017-11-04T08:54:27.177Z,13.50
2017-11-04T08:56:54.784Z,15.03
2017-11-04T08:59:22.483Z,11.07
2017-11-04T09:01:50.116Z,12.50
2017-11-04T09:04:18.542Z,10.23
2017-11-04T09:06:46.191Z,9.63
2017-11-04T09:09:13.895Z,11.23
2017-11-04T09:11:41.518Z,12.10
2017-11-04T09:14:09.160Z,11.10
2017-11-04T09:16:36.775Z,9.33
2017-11-04T09:19:04.419Z,9.37
2017-11-04T09:21:32.060Z,7.93
2017-11-04T09:23:59.707Z,7.30
2017-11-04T09:26:27.320Z,8.57
2017-11-04T09:28:54.951Z,7.70
2017-11-04T09:31:22.561Z,9.43
2017-11-04T09:33:50.211Z,14.50
2017-11-04T09:36:18.634Z,6.60
2017-11-04T09:38:46.415Z,10.63
2017-11-04T09:41:14.038Z,11.73
2017-11-04T09:43:41.684Z,8.73
2017-11-04T09:46:09.355Z,12.50
2017-11-04T09:48:37.029Z,8.67
2017-11-04T09:51:04.680Z,10.43
2017-11-04T09:53:32.317Z,9.03
2017-11-04T09:56:00.761Z,6.30
2017-11-04T09:58:29.176Z,13.03
2017-11-04T10:00:56.818Z,8.37
2017-11-04T10:03:25.195Z,6.60
2017-11-04T10:05:53.615Z,7.27
2017-11-04T10:08:21.247Z,7.70
2017-11-04T10:10:49.656Z,10.23
2017-11-04T10:13:17.447Z,8.57
2017-11-04T10:15:45.107Z,5.07
2017-11-04T10:18:12.792Z,4.50
2017-11-04T10:20:40.447Z,4.73
2017-11-04T10:23:08.105Z,6.67
2017-11-04T10:25:35.736Z,6.73
2017-11-04T10:28:03.412Z,4.50
2017-11-04T10:30:31.095Z,7.30
2017-11-04T10:32:59.535Z,8.53
2017-11-04T10:35:27.191Z,6.37
2017-11-04T10:37:54.880Z,5.27
2017-11-04T10:40:22.538Z,6.23
2017-11-04T10:42:50.270Z,12.37
2017-11-04T10:45:17.900Z,6.00
2017-11-04T10:47:45.523Z,4.90
2017-11-04T10:50:13.199Z,6.57
2017-11-04T10:52:41.590Z,7.97
2017-11-04T10:55:09.258Z,5.67
2017-11-04T10:57:36.896Z,9.60
2017-11-04T11:00:05.334Z,4.10
2017-11-04T11:02:33.071Z,4.57
2017-11-04T11:05:00.916Z,3.27
2017-11-04T11:07:28.547Z,6.70
2017-11-04T11:09:56.255Z,7.73
2017-11-04T11:12:23.912Z,4.37
2017-11-04T11:14:51.600Z,4.57
2017-11-04T11:17:19.260Z,4.03
2017-11-04T11:19:46.943Z,6.73
2017-11-04T11:22:14.624Z,4.80
2017-11-04T11:24:43.028Z,6.10
2017-11-04T11:27:10.680Z,4.50
2017-11-04T11:29:38.308Z,4.83
2017-11-04T11:32:05.973Z,4.60
2017-11-04T11:34:33.849Z,5.23
2017-11-04T11:37:02.240Z,5.33
2017-11-04T11:39:30.644Z,3.83
2017-11-04T11:41:58.276Z,5.03
2017-11-04T11:44:25.926Z,4.53
2017-11-04T11:46:54.299Z,6.20
2017-11-04T11:49:22.737Z,4.47
2017-11-04T11:51:50.365Z,3.80
2017-11-04T11:54:18.040Z,4.23
2017-11-04T11:56:45.652Z,3.70
2017-11-04T11:59:14.059Z,5.17
2017-11-04T12:01:41.683Z,4.23
2017-11-04T12:04:10.181Z,4.83
2017-11-04T12:06:38.608Z,6.87
2017-11-04T12:09:06.248Z,6.00
2017-11-04T12:11:33.851Z,4.93
2017-11-04T12:14:01.510Z,5.97
2017-11-04T12:16:29.121Z,7.23
2017-11-04T12:18:56.775Z,3.40
2017-11-04T12:21:24.403Z,3.07
2017-11-04T12:23:52.916Z,5.47
2017-11-04T12:26:20.539Z,5.60
2017-11-04T12:28:48.173Z,4.60
2017-11-04T12:31:15.823Z,4.73
2017-11-04T12:33:43.456Z,5.47
2017-11-04T12:36:11.123Z,6.00
2017-11-04T12:38:38.745Z,6.20
2017-11-04T12:41:07.180Z,5.70
2017-11-04T12:43:34.796Z,7.20
2017-11-04T12:46:02.484Z,5.00
2017-11-04T12:48:30.211Z,7.70
2017-11-04T12:50:58.589Z,5.03
2017-11-04T12:53:27.000Z,4.93
2017-11-04T12:55:54.616Z,5.20
2017-11-04T12:58:23.225Z,7.90
2017-11-04T13:00:50.859Z,5.70
2017-11-04T13:03:19.284Z,7.37
2017-11-04T13:05:46.897Z,7.63
2017-11-04T13:08:15.296Z,11.17
2017-11-04T13:10:42.957Z,6.60
2017-11-04T13:13:10.559Z,7.30
2017-11-04T13:15:38.221Z,5.30
2017-11-04T13:18:05.850Z,7.07
2017-11-04T13:20:33.506Z,6.63
2017-11-04T13:23:01.120Z,7.10
2017-11-04T13:25:28.777Z,6.17
2017-11-04T13:27:56.399Z,9.17
2017-11-04T13:30:24.212Z,6.47
2017-11-04T13:32:53.775Z,9.37
2017-11-04T13:35:21.392Z,8.50
2017-11-04T13:37:49.046Z,7.33
2017-11-04T13:40:17.479Z,7.43
2017-11-04T13:42:45.128Z,8.23
2017-11-04T13:45:12.744Z,6.53
2017-11-04T13:47:41.211Z,7.93
2017-11-04T13:50:09.880Z,7.50
2017-11-04T13:52:37.504Z,8.80
2017-11-04T13:55:05.232Z,7.43
2017-11-04T13:57:32.975Z,9.57
2017-11-04T14:00:00.626Z,8.10
2017-11-04T14:02:28.507Z,7.63
2017-11-04T14:04:56.940Z,8.30
2017-11-04T14:07:24.643Z,8.90
2017-11-04T14:09:53.414Z,6.20
2017-11-04T14:12:21.054Z,9.43
2017-11-04T14:14:48.682Z,9.23
2017-11-04T14:17:16.338Z,5.43
2017-11-04T14:19:43.963Z,6.50
2017-11-04T14:22:11.618Z,6.70
2017-11-04T14:24:39.242Z,6.37
2017-11-04T14:27:06.920Z,6.30
2017-11-04T14:29:34.554Z,5.50
2017-11-04T14:32:03.184Z,7.20
2017-11-04T14:34:30.817Z,8.33
2017-11-04T14:36:58.492Z,5.13
2017-11-04T14:39:26.149Z,7.13
2017-11-04T14:41:53.954Z,5.90
2017-11-04T14:44:21.734Z,14.67
2017-11-04T14:46:50.474Z,8.10
2017-11-04T14:49:19.025Z,8.30
2017-11-04T14:54:04.943Z,6.20
2017-11-04T14:56:34.036Z,7.30
2017-11-04T14:59:02.304Z,7.43
2017-11-04T15:01:30.615Z,6.57
2017-11-04T15:03:58.992Z,5.60
2017-11-04T15:06:27.256Z,4.47
2017-11-04T15:08:56.408Z,6.30
2017-11-04T15:11:24.719Z,10.43
2017-11-04T15:13:53.753Z,8.90
2017-11-04T15:16:22.624Z,7.37
2017-11-04T15:18:51.075Z,6.07
2017-11-04T15:21:19.964Z,7.40
2017-11-04T15:24:05.985Z,9.03
2017-11-04T15:29:05.847Z,6.33
2017-11-04T15:31:34.130Z,6.80
2017-11-04T15:34:02.427Z,7.10
2017-11-04T15:36:30.693Z,8.70
2017-11-04T15:38:58.952Z,8.60
2017-11-04T15:41:27.392Z,6.90
2017-11-04T15:43:55.684Z,5.50
2017-11-04T15:46:24.006Z,6.50
2017-11-04T15:48:53.039Z,10.93
2017-11-04T15:51:21.328Z,6.90
2017-11-04T15:53:49.567Z,6.47
2017-11-04T15:56:17.983Z,7.77
2017-11-04T15:58:46.240Z,7.93
2017-11-04T16:01:14.517Z,9.63
2017-11-04T16:03:42.815Z,6.93
2017-11-04T16:06:12.245Z,5.83
2017-11-04T16:08:40.628Z,5.80
2017-11-04T16:11:08.880Z,6.30
2017-11-04T16:13:37.160Z,7.03
2017-11-04T16:16:05.408Z,10.50
2017-11-04T16:18:33.710Z,7.20
2017-11-04T16:21:01.966Z,8.83
2017-11-04T16:23:30.249Z,5.47
2017-11-04T16:25:58.551Z,9.43
2017-11-04T16:28:26.820Z,10.50
2017-11-04T16:30:56.965Z,7.23
2017-11-04T16:33:25.236Z,5.90
2017-11-04T16:35:53.610Z,11.23
2017-11-04T16:38:21.879Z,9.13
2017-11-04T16:40:50.162Z,6.47
2017-11-04T16:43:19.245Z,9.53
2017-11-04T16:45:48.289Z,14.03
2017-11-04T16:48:16.629Z,6.63
2017-11-04T16:50:44.913Z,7.23
2017-11-04T16:53:13.213Z,8.37
2017-11-04T16:55:41.516Z,11.83
2017-11-04T16:58:09.781Z,13.30
2017-11-04T17:00:38.077Z,9.63
2017-11-04T17:03:06.386Z,7.60
2017-11-04T17:05:34.628Z,7.27
2017-11-04T17:08:03.242Z,9.43
2017-11-04T17:10:31.578Z,9.83
2017-11-04T17:12:59.868Z,8.70
2017-11-04T17:15:28.131Z,13.60
2017-11-04T17:17:56.449Z,9.50
2017-11-04T17:20:24.733Z,12.93
2017-11-04T17:22:52.975Z,11.90
2017-11-04T17:25:22.014Z,10.50
2017-11-04T17:27:50.251Z,9.90
2017-11-04T17:30:18.560Z,13.40
2017-11-04T17:32:46.792Z,10.10
2017-11-04T17:35:15.861Z,15.77
2017-11-04T17:37:44.152Z,22.90
2017-11-04T17:40:13.240Z,14.17
2017-11-04T17:42:42.257Z,15.57
2017-11-04T17:45:10.491Z,14.70
2017-11-04T17:47:38.764Z,17.00
2017-11-04T17:50:07.026Z,13.43
2017-11-04T17:52:35.366Z,13.20
2017-11-04T17:55:03.684Z,15.93
2017-11-04T17:57:31.971Z,15.03
2017-11-04T18:00:00.261Z,19.60
2017-11-04T18:02:29.284Z,13.10
2017-11-04T18:04:57.528Z,13.30
2017-11-04T18:07:26.586Z,12.73
2017-11-04T18:09:54.927Z,14.33
2017-11-04T18:12:23.160Z,14.70
2017-11-04T18:14:51.447Z,12.83
2017-11-04T18:17:20.487Z,23.63
2017-11-04T18:19:48.758Z,22.50
2017-11-04T18:22:17.010Z,21.77
2017-11-04T18:24:45.284Z,25.73
2017-11-04T18:27:13.529Z,31.63
2017-11-04T18:29:41.820Z,19.07
2017-11-04T18:32:10.089Z,16.97
2017-11-04T18:34:39.163Z,20.80
2017-11-04T18:37:07.397Z,14.83
2017-11-04T18:39:35.644Z,15.23
2017-11-04T18:42:03.912Z,13.83
2017-11-04T18:44:32.187Z,18.20
2017-11-04T18:47:00.454Z,17.20
2017-11-04T18:49:29.516Z,15.67
2017-11-04T18:51:57.799Z,18.13
2017-11-04T18:54:26.222Z,16.90
2017-11-04T18:56:54.559Z,13.60
2017-11-04T18:59:23.027Z,16.70
2017-11-04T19:01:51.533Z,18.60
2017-11-04T19:04:20.058Z,23.70
2017-11-04T19:06:49.103Z,23.07
2017-11-04T19:09:18.141Z,16.80
2017-11-04T19:11:46.410Z,16.50
2017-11-04T19:14:14.817Z,18.77
2017-11-04T19:16:43.280Z,19.77
2017-11-04T19:19:11.877Z,22.73
2017-11-04T19:21:40.253Z,16.33
2017-11-04T19:24:08.598Z,17.57
2017-11-04T19:26:38.654Z,18.97
2017-11-04T19:29:07.037Z,17.00
2017-11-04T19:31:35.389Z,16.47
2017-11-04T19:34:03.805Z,17.93
2017-11-04T19:36:32.855Z,18.60
2017-11-04T19:39:01.207Z,17.53
2017-11-04T19:41:29.739Z,20.23
2017-11-04T19:43:58.949Z,24.43
2017-11-04T19:46:27.344Z,17.27
2017-11-04T19:48:55.689Z,18.67
2017-11-04T19:51:24.030Z,19.43
2017-11-04T19:53:52.299Z,17.07
2017-11-04T19:56:21.632Z,23.93
2017-11-04T19:58:50.196Z,17.87
2017-11-04T20:01:18.689Z,18.57
2017-11-04T20:03:47.190Z,22.30
2017-11-04T20:06:15.583Z,20.50
2017-11-04T20:08:44.043Z,21.47
2017-11-04T20:11:12.387Z,21.40
2017-11-04T20:13:40.732Z,15.03
2017-11-04T20:16:08.980Z,24.43
2017-11-04T20:18:37.279Z,19.27
2017-11-04T20:21:05.548Z,24.70
2017-11-04T20:23:34.012Z,20.27
2017-11-04T20:26:03.344Z,19.33
2017-11-04T20:28:31.796Z,26.37
2017-11-04T20:31:00.201Z,23.03
2017-11-04T20:33:28.615Z,21.27
2017-11-04T20:35:56.957Z,21.57
2017-11-04T20:38:25.310Z,22.70
2017-11-04T20:40:53.596Z,23.10
2017-11-04T20:43:22.102Z,21.90
2017-11-04T20:45:50.547Z,18.90
2017-11-04T20:48:18.973Z,20.80
2017-11-04T20:50:47.495Z,21.40
2017-11-04T20:53:16.590Z,25.03
2017-11-04T20:55:44.948Z,21.87
2017-11-04T20:58:13.287Z,21.50
2017-11-04T21:00:41.629Z,29.43
2017-11-04T21:03:09.962Z,22.00
2017-11-04T21:05:38.413Z,20.33
2017-11-04T21:08:07.761Z,20.83
2017-11-04T21:10:36.209Z,20.00
2017-11-04T21:13:04.593Z,18.60
2017-11-04T21:15:32.990Z,23.53
2017-11-04T21:18:02.032Z,21.40
2017-11-04T21:20:30.534Z,21.73
2017-11-04T21:22:59.042Z,21.00
2017-11-04T21:25:27.551Z,22.43
2017-11-04T21:27:55.870Z,48.10
2017-11-04T21:30:24.318Z,35.27
2017-11-04T21:32:52.851Z,22.53
2017-11-04T21:35:21.453Z,21.37
2017-11-04T21:37:49.919Z,22.93
2017-11-04T21:40:19.025Z,28.03
2017-11-04T21:42:47.324Z,25.47
2017-11-04T21:45:15.576Z,21.60
2017-11-04T21:47:43.889Z,21.00
2017-11-04T21:50:12.143Z,24.37
2017-11-04T21:52:41.180Z,25.67
2017-11-04T21:55:09.480Z,25.33
2017-11-04T21:57:38.950Z,18.73
2017-11-04T22:00:07.407Z,22.37
2017-11-04T22:02:35.756Z,32.43
2017-11-04T22:05:04.951Z,25.53
2017-11-04T22:07:33.500Z,24.07
2017-11-04T22:10:02.075Z,45.03
2017-11-04T22:12:31.153Z,20.90
2017-11-04T22:14:59.514Z,26.93
2017-11-04T22:17:27.835Z,21.90
2017-11-04T22:19:56.156Z,25.00
2017-11-04T22:22:24.606Z,123.63
2017-11-04T22:24:53.060Z,91.17
2017-11-04T22:27:21.807Z,85.97
2017-11-04T22:29:50.373Z,33.53
2017-11-04T22:32:18.993Z,24.90
2017-11-04T22:34:47.406Z,21.90
2017-11-04T22:37:15.871Z,20.17
2017-11-04T22:39:44.178Z,19.80
2017-11-04T22:42:14.201Z,25.33
2017-11-04T22:44:42.739Z,24.07
2017-11-04T22:47:11.982Z,22.30
2017-11-04T22:49:41.284Z,25.40
2017-11-04T22:52:09.675Z,18.03
2017-11-04T22:54:38.034Z,19.80
2017-11-04T22:57:06.360Z,22.70
2017-11-04T22:59:35.075Z,24.20
2017-11-04T23:02:03.475Z,25.37
2017-11-04T23:04:31.759Z,21.33
2017-11-04T23:07:00.028Z,20.00
2017-11-04T23:09:28.329Z,20.80
2017-11-04T23:11:56.584Z,16.33
2017-11-04T23:14:24.891Z,20.33
2017-11-04T23:16:53.926Z,16.00
2017-11-04T23:19:22.247Z,20.00
2017-11-04T23:21:50.519Z,19.37
2017-11-04T23:24:18.789Z,20.73
2017-11-04T23:26:47.088Z,23.40
2017-11-04T23:29:15.352Z,21.00
2017-11-04T23:31:43.648Z,22.90
2017-11-04T23:34:12.680Z,21.00
2017-11-04T23:36:40.952Z,23.50
2017-11-04T23:39:09.212Z,24.93
2017-11-04T23:41:37.551Z,24.23
2017-11-04T23:44:06.580Z,17.67
2017-11-04T23:46:34.879Z,26.50
2017-11-04T23:49:03.114Z,15.10
2017-11-04T23:51:32.160Z,15.23
2017-11-04T23:54:00.411Z,16.90
2017-11-04T23:56:28.705Z,20.20
2017-11-04T23:58:56.940Z,18.10
